Time;durP1;ratioP1;P1;durP2;ratioP2;P2;SDS_P1;SDS_P2;PMS_P1;PMS_P2;Temp;Humidity;BMP_temperature;BMP_pressure;BME280_temperature;BME280_humidity;BME280_pressure;Samples;Min_cycle;Max_cycle;Signal;HPM_P1;HPM_P2
2021/11/06 00:01:28;;;;;;;12.00;9.43;;;8.40;99.90;;;;;;5012429;28;20625;-76
2021/11/06 00:03:54;;;;;;;12.13;9.07;;;8.50;99.90;;;;;;5012669;28;20168;-76
2021/11/06 00:06:19;;;;;;;12.50;8.77;;;8.30;99.90;;;;;;5012216;28;20164;-76
2021/11/06 00:08:45;;;;;;;9.65;8.55;;;8.20;99.90;;;;;;5012549;28;20171;-76
2021/11/06 00:11:11;;;;;;;15.98;9.38;;;8.10;99.90;;;;;;5012734;28;20208;-76
2021/11/06 00:13:36;;;;;;;16.95;9.18;;;8.00;99.90;;;;;;5013072;28;20165;-76
2021/11/06 00:16:02;;;;;;;12.60;8.23;;;7.90;99.90;;;;;;5012863;28;20175;-80
2021/11/06 00:18:28;;;;;;;13.45;9.50;;;8.00;99.90;;;;;;5012798;28;20172;-76
2021/11/06 00:20:53;;;;;;;14.15;9.57;;;8.20;99.90;;;;;;5012930;28;20203;-76
2021/11/06 00:23:19;;;;;;;14.05;8.90;;;8.20;99.90;;;;;;5012883;28;20161;-76
2021/11/06 00:25:45;;;;;;;16.70;10.43;;;8.20;99.90;;;;;;5013049;28;20302;-75
2021/11/06 00:28:11;;;;;;;10.95;9.75;;;8.10;99.90;;;;;;5012970;28;20259;-76
2021/11/06 00:30:37;;;;;;;10.48;9.32;;;8.20;99.90;;;;;;5027605;28;20632;-75
2021/11/06 00:33:03;;;;;;;13.98;10.32;;;7.90;99.90;;;;;;5012404;28;20187;-76
2021/11/06 00:35:28;;;;;;;16.42;8.63;;;7.90;99.90;;;;;;5012501;28;20580;-76
2021/11/06 00:37:54;;;;;;;17.65;9.20;;;7.90;99.90;;;;;;5027907;28;20183;-84
2021/11/06 00:40:20;;;;;;;14.43;9.95;;;7.90;99.90;;;;;;5012588;28;20188;-76
2021/11/06 00:42:46;;;;;;;14.30;10.02;;;7.80;99.90;;;;;;5027737;28;20226;-76
2021/11/06 00:45:13;;;;;;;18.80;9.95;;;7.90;99.90;;;;;;5012543;28;20649;-75
2021/11/06 00:47:40;;;;;;;14.20;9.48;;;8.00;99.90;;;;;;5012401;28;20169;-76
2021/11/06 00:50:08;;;;;;;13.20;9.57;;;8.00;99.90;;;;;;5012222;28;20185;-75
2021/11/06 00:52:34;;;;;;;11.98;9.20;;;7.90;99.90;;;;;;5012228;28;20274;-75
2021/11/06 00:55:00;;;;;;;17.00;11.25;;;7.90;99.90;;;;;;5012473;28;20169;-75
2021/11/06 00:57:27;;;;;;;20.00;10.85;;;7.90;99.90;;;;;;5012149;28;20499;-82
2021/11/06 00:59:52;;;;;;;10.93;9.80;;;7.90;99.90;;;;;;5027270;28;20212;-75
2021/11/06 01:02:18;;;;;;;18.88;11.15;;;7.70;99.90;;;;;;5012230;28;20219;-76
2021/11/06 01:04:44;;;;;;;15.73;10.65;;;7.50;99.90;;;;;;5012045;28;20195;-77
2021/11/06 01:07:10;;;;;;;12.43;9.27;;;7.60;99.90;;;;;;5012169;28;20173;-76
2021/11/06 01:09:35;;;;;;;17.88;10.90;;;7.60;99.90;;;;;;5012386;28;20188;-77
2021/11/06 01:12:01;;;;;;;15.25;10.57;;;7.60;99.90;;;;;;5012507;28;20204;-77
2021/11/06 01:14:27;;;;;;;18.15;10.95;;;7.60;99.90;;;;;;5031310;28;20164;-76
2021/11/06 01:16:53;;;;;;;22.65;11.52;;;7.80;99.90;;;;;;5015844;28;20214;-76
2021/11/06 01:19:18;;;;;;;14.00;10.32;;;7.90;99.90;;;;;;5015709;28;20181;-86
2021/11/06 01:21:44;;;;;;;21.60;10.07;;;7.70;99.90;;;;;;5015984;28;20250;-86
2021/11/06 01:24:10;;;;;;;16.00;10.35;;;7.80;99.90;;;;;;5015894;28;20176;-79
2021/11/06 01:26:35;;;;;;;12.10;10.38;;;7.90;99.90;;;;;;5015400;28;20195;-75
2021/11/06 01:29:01;;;;;;;20.52;10.60;;;8.00;99.90;;;;;;5015869;28;20180;-76
2021/11/06 01:31:28;;;;;;;13.55;10.90;;;8.10;99.90;;;;;;5015550;28;20207;-76
2021/11/06 01:33:54;;;;;;;21.40;12.70;;;8.10;99.90;;;;;;5031102;28;20184;-77
2021/11/06 01:36:20;;;;;;;13.15;10.38;;;7.90;99.90;;;;;;5016229;28;20229;-76
2021/11/06 01:38:46;;;;;;;20.30;11.40;;;7.60;99.90;;;;;;5015629;28;20160;-76
2021/11/06 01:41:12;;;;;;;20.95;12.50;;;7.60;99.90;;;;;;5015642;28;20172;-76
2021/11/06 01:43:39;;;;;;;17.35;11.43;;;7.50;99.90;;;;;;5015513;28;20156;-78
2021/11/06 01:46:06;;;;;;;17.60;10.88;;;7.50;99.90;;;;;;5030646;28;20279;-76
2021/11/06 01:48:32;;;;;;;16.00;11.25;;;7.50;99.90;;;;;;5016193;28;20211;-77
2021/11/06 01:50:59;;;;;;;15.70;10.68;;;7.50;99.90;;;;;;5031024;28;20212;-77
2021/11/06 01:53:25;;;;;;;18.55;11.00;;;7.40;99.90;;;;;;5016155;28;20164;-76
2021/11/06 01:55:54;;;;;;;13.80;9.68;;;7.20;99.90;;;;;;5015554;28;20164;-76
2021/11/06 01:58:22;;;;;;;13.10;9.68;;;7.20;99.90;;;;;;5030855;28;20180;-76
2021/11/06 02:00:49;;;;;;;12.00;9.93;;;7.10;99.90;;;;;;5031235;28;20196;-76
2021/11/06 02:03:15;;;;;;;24.25;11.68;;;7.20;99.90;;;;;;5014982;28;20164;-76
2021/11/06 02:05:42;;;;;;;13.77;10.15;;;7.10;99.90;;;;;;5015797;28;20262;-78
2021/11/06 02:08:07;;;;;;;12.02;9.63;;;7.20;99.90;;;;;;5015154;28;20172;-76
2021/11/06 02:10:34;;;;;;;10.75;9.55;;;7.40;99.90;;;;;;5015305;28;20188;-76
2021/11/06 02:12:59;;;;;;;16.02;9.40;;;7.40;99.90;;;;;;5015819;28;20196;-76
2021/11/06 02:15:25;;;;;;;18.23;8.82;;;7.30;99.90;;;;;;5015156;28;20169;-77
2021/11/06 02:17:52;;;;;;;11.48;9.00;;;7.40;99.90;;;;;;5016004;28;20172;-76
2021/11/06 02:20:19;;;;;;;13.80;8.77;;;7.40;99.90;;;;;;5015310;28;20274;-76
2021/11/06 02:22:45;;;;;;;17.98;9.02;;;7.40;99.90;;;;;;5015264;28;20184;-76
2021/11/06 02:25:12;;;;;;;14.32;10.00;;;7.40;99.90;;;;;;5014742;28;20178;-76
2021/11/06 02:27:38;;;;;;;22.90;10.15;;;7.50;99.90;;;;;;5014732;28;20173;-76
2021/11/06 02:30:07;;;;;;;20.27;10.82;;;7.50;99.90;;;;;;5014637;28;20184;-76
2021/11/06 02:32:34;;;;;;;10.10;8.68;;;7.50;99.90;;;;;;5014725;28;20200;-76
2021/11/06 02:35:00;;;;;;;12.32;9.15;;;7.40;99.90;;;;;;5014529;28;20535;-76
2021/11/06 02:37:26;;;;;;;12.55;9.07;;;7.10;99.90;;;;;;5014404;28;20260;-76
2021/11/06 02:39:52;;;;;;;10.75;8.95;;;7.20;99.90;;;;;;5014206;28;20192;-76
2021/11/06 02:42:18;;;;;;;9.38;7.95;;;7.20;99.90;;;;;;5014618;28;20661;-75
2021/11/06 02:44:45;;;;;;;15.57;8.23;;;7.20;99.90;;;;;;5014293;28;20192;-79
2021/11/06 02:47:11;;;;;;;12.90;8.32;;;7.10;99.90;;;;;;5013986;28;20238;-76
2021/11/06 02:49:36;;;;;;;8.63;7.72;;;7.20;99.90;;;;;;5014239;28;20592;-76
2021/11/06 02:52:03;;;;;;;11.93;8.15;;;7.00;99.90;;;;;;5014018;28;20255;-76
2021/11/06 02:54:29;;;;;;;15.02;7.82;;;6.90;99.90;;;;;;5013747;28;20161;-76
2021/11/06 02:56:55;;;;;;;9.45;7.93;;;6.90;99.90;;;;;;5013843;28;20176;-75
2021/11/06 02:59:21;;;;;;;11.68;9.10;;;7.00;99.90;;;;;;5013452;28;20548;-76
2021/11/06 03:01:47;;;;;;;10.75;7.85;;;6.90;99.90;;;;;;5029129;28;20175;-75
2021/11/06 03:04:13;;;;;;;11.00;7.90;;;6.90;99.90;;;;;;5014199;28;20172;-76
2021/11/06 03:06:39;;;;;;;12.73;6.90;;;6.80;99.90;;;;;;5013797;28;20537;-76
2021/11/06 03:09:06;;;;;;;17.48;8.85;;;6.80;99.90;;;;;;5014130;28;20238;-75
2021/11/06 03:11:33;;;;;;;10.90;7.90;;;6.90;99.90;;;;;;5013593;28;20204;-75
2021/11/06 03:14:01;;;;;;;11.25;8.45;;;6.90;99.90;;;;;;5013775;28;20168;-76
2021/11/06 03:16:27;;;;;;;8.70;7.60;;;6.80;99.90;;;;;;5014014;28;20191;-75
2021/11/06 03:18:53;;;;;;;8.40;7.00;;;6.90;99.90;;;;;;5028861;28;20551;-75
2021/11/06 03:21:19;;;;;;;14.05;7.57;;;7.00;99.90;;;;;;5013593;28;20539;-75
2021/11/06 03:23:45;;;;;;;12.13;7.20;;;6.80;99.90;;;;;;5013542;28;20173;-75
2021/11/06 03:26:11;;;;;;;9.98;7.72;;;6.80;99.90;;;;;;5013311;28;20173;-75
2021/11/06 03:28:37;;;;;;;16.15;7.55;;;6.90;99.90;;;;;;5013506;28;20625;-76
2021/11/06 03:31:03;;;;;;;8.05;7.00;;;6.70;99.90;;;;;;5028620;28;20258;-76
2021/11/06 03:33:28;;;;;;;8.05;6.80;;;6.70;99.90;;;;;;5013662;28;20184;-77
2021/11/06 03:35:54;;;;;;;12.20;7.75;;;6.70;99.90;;;;;;5027715;28;20243;-76
2021/11/06 03:38:20;;;;;;;10.48;7.00;;;6.80;99.90;;;;;;5013080;28;20172;-75
2021/11/06 03:40:46;;;;;;;7.13;6.30;;;6.90;99.90;;;;;;5013234;28;20192;-76
2021/11/06 03:43:11;;;;;;;9.82;7.50;;;6.60;99.90;;;;;;5012798;28;20499;-75
2021/11/06 03:45:37;;;;;;;8.88;7.25;;;6.60;99.90;;;;;;5028130;28;20560;-76
2021/11/06 03:48:03;;;;;;;8.18;7.38;;;6.90;99.90;;;;;;5011611;28;20160;-75
2021/11/06 03:50:29;;;;;;;8.43;6.65;;;7.10;99.90;;;;;;5012541;28;20196;-76
2021/11/06 03:52:54;;;;;;;13.82;6.85;;;7.10;99.90;;;;;;5028163;28;20662;-75
2021/11/06 03:55:20;;;;;;;10.30;6.93;;;6.90;99.90;;;;;;5013053;28;20303;-75
2021/11/06 03:57:46;;;;;;;14.32;7.20;;;6.80;99.90;;;;;;5027874;28;20641;-75
2021/11/06 04:00:14;;;;;;;13.82;7.47;;;7.00;99.90;;;;;;5012997;28;20193;-75
2021/11/06 04:02:42;;;;;;;12.77;7.45;;;6.90;99.90;;;;;;5012888;28;20168;-76
2021/11/06 04:05:08;;;;;;;8.68;7.22;;;6.90;99.90;;;;;;5013074;28;20251;-76
2021/11/06 04:07:34;;;;;;;9.55;7.32;;;6.80;99.90;;;;;;5013123;28;20169;-76
2021/11/06 04:09:59;;;;;;;9.93;8.18;;;6.80;99.90;;;;;;5012803;28;20195;-75
2021/11/06 04:12:25;;;;;;;9.55;7.45;;;6.80;99.90;;;;;;5012451;28;20564;-75
2021/11/06 04:14:51;;;;;;;8.05;7.25;;;6.80;99.90;;;;;;5012623;28;20258;-75
2021/11/06 04:17:16;;;;;;;6.90;6.25;;;6.70;99.90;;;;;;5027899;28;20268;-75
2021/11/06 04:19:42;;;;;;;7.95;7.20;;;6.50;99.90;;;;;;5012555;28;20553;-75
2021/11/06 04:22:08;;;;;;;11.48;6.88;;;6.70;99.90;;;;;;5012545;28;20584;-75
2021/11/06 04:24:35;;;;;;;7.78;6.55;;;6.90;99.90;;;;;;5012563;28;20176;-76
2021/11/06 04:27:02;;;;;;;7.97;7.18;;;6.90;99.90;;;;;;5012738;28;20160;-76
2021/11/06 04:29:27;;;;;;;8.57;7.72;;;6.90;99.90;;;;;;5013050;28;20192;-76
2021/11/06 04:31:53;;;;;;;7.45;6.72;;;7.00;99.90;;;;;;5012481;28;20636;-75
2021/11/06 04:34:19;;;;;;;7.63;6.90;;;6.90;99.90;;;;;;5027511;28;20534;-75
2021/11/06 04:36:45;;;;;;;7.80;7.00;;;6.80;99.90;;;;;;5012614;28;20176;-83
2021/11/06 04:39:11;;;;;;;9.45;7.50;;;6.80;99.90;;;;;;5012759;28;20180;-76
2021/11/06 04:41:36;;;;;;;8.90;8.00;;;6.60;99.90;;;;;;5012546;28;20168;-76
2021/11/06 04:44:02;;;;;;;17.48;7.00;;;6.70;99.90;;;;;;5012638;28;20256;-75
2021/11/06 04:46:28;;;;;;;9.88;7.45;;;6.70;99.90;;;;;;5028346;28;20619;-75
2021/11/06 04:48:54;;;;;;;10.05;7.25;;;6.70;99.90;;;;;;5015682;28;20196;-76
2021/11/06 04:51:19;;;;;;;12.35;7.90;;;6.70;99.90;;;;;;5016186;28;20685;-76
2021/11/06 04:53:45;;;;;;;10.20;6.68;;;6.60;99.90;;;;;;5016333;28;20190;-76
2021/11/06 04:56:11;;;;;;;10.65;7.35;;;6.70;99.90;;;;;;5016357;28;20169;-76
2021/11/06 04:58:37;;;;;;;7.75;7.05;;;6.90;99.90;;;;;;5031699;28;20168;-75
2021/11/06 05:01:03;;;;;;;9.35;7.13;;;6.90;99.90;;;;;;5031141;28;20188;-75
2021/11/06 05:03:29;;;;;;;8.10;6.22;;;7.00;99.90;;;;;;5031199;28;20690;-76
2021/11/06 05:05:55;;;;;;;15.20;7.68;;;7.10;99.90;;;;;;5015861;28;20262;-75
2021/11/06 05:08:20;;;;;;;7.07;6.38;;;7.20;99.90;;;;;;5031045;28;20254;-76
2021/11/06 05:10:46;;;;;;;9.40;6.43;;;7.00;99.90;;;;;;5030628;28;20185;-75
2021/11/06 05:13:12;;;;;;;8.43;6.90;;;7.10;99.90;;;;;;5015881;28;20300;-76
2021/11/06 05:15:39;;;;;;;7.53;5.90;;;7.20;99.90;;;;;;5031080;28;20168;-75
2021/11/06 05:18:04;;;;;;;8.52;6.05;;;7.20;99.90;;;;;;5016292;28;20176;-75
2021/11/06 05:20:31;;;;;;;7.32;5.60;;;7.30;99.90;;;;;;5015518;28;20687;-76
2021/11/06 05:22:57;;;;;;;5.97;4.85;;;7.20;99.90;;;;;;5016105;28;20234;-76
2021/11/06 05:25:23;;;;;;;7.70;4.95;;;7.00;99.90;;;;;;5015914;28;20644;-75
2021/11/06 05:27:49;;;;;;;6.35;5.35;;;7.10;99.90;;;;;;5031567;28;20176;-75
2021/11/06 05:30:15;;;;;;;6.00;5.13;;;7.20;99.90;;;;;;5015794;28;20191;-80
2021/11/06 05:32:41;;;;;;;7.68;5.00;;;7.20;99.90;;;;;;5015596;28;21108;-76
2021/11/06 05:35:09;;;;;;;5.38;4.93;;;7.20;99.90;;;;;;5015676;28;20188;-76
2021/11/06 05:37:35;;;;;;;4.60;4.20;;;7.10;99.90;;;;;;5015494;28;20662;-76
2021/11/06 05:40:01;;;;;;;8.20;4.90;;;7.10;99.90;;;;;;5016244;28;20275;-89
2021/11/06 05:42:26;;;;;;;4.68;3.95;;;7.10;99.90;;;;;;5030840;28;20204;-76
2021/11/06 05:44:52;;;;;;;7.38;4.28;;;7.30;99.90;;;;;;5015571;28;20252;-75
2021/11/06 05:47:18;;;;;;;6.53;4.40;;;7.20;99.90;;;;;;5015520;28;20173;-76
2021/11/06 05:49:43;;;;;;;7.53;4.55;;;7.20;99.90;;;;;;5015509;28;20306;-87
2021/11/06 05:52:09;;;;;;;4.78;4.28;;;7.10;99.90;;;;;;5015395;28;20215;-84
2021/11/06 05:54:34;;;;;;;5.75;4.88;;;7.10;99.90;;;;;;5015454;28;20537;-76
2021/11/06 05:57:00;;;;;;;6.07;4.28;;;6.90;99.90;;;;;;5015124;28;20165;-80
2021/11/06 05:59:26;;;;;;;5.00;4.47;;;6.90;99.90;;;;;;5014814;28;20185;-76
2021/11/06 06:01:52;;;;;;;4.85;4.18;;;6.90;99.90;;;;;;5015067;28;20704;-76
2021/11/06 06:04:17;;;;;;;4.38;3.90;;;6.90;99.90;;;;;;5015193;28;20302;-82
2021/11/06 06:06:43;;;;;;;7.68;4.15;;;7.10;99.90;;;;;;5030200;28;20207;-75
2021/11/06 06:09:09;;;;;;;5.00;4.30;;;7.20;99.90;;;;;;5030137;28;20227;-76
2021/11/06 06:11:34;;;;;;;7.57;3.83;;;7.20;99.90;;;;;;5014878;28;20216;-76
2021/11/06 06:14:00;;;;;;;12.02;4.30;;;7.30;99.90;;;;;;5014738;28;20243;-76
2021/11/06 06:16:26;;;;;;;10.35;4.43;;;7.30;99.90;;;;;;5014687;28;20180;-75
2021/11/06 06:18:53;;;;;;;4.53;3.85;;;7.40;99.90;;;;;;5014911;28;20169;-75
2021/11/06 06:21:18;;;;;;;10.30;4.32;;;7.40;99.90;;;;;;5014884;28;20176;-75
2021/11/06 06:23:44;;;;;;;9.75;3.65;;;7.60;99.90;;;;;;5014654;28;20168;-75
2021/11/06 06:26:10;;;;;;;5.43;3.80;;;7.60;99.90;;;;;;5014815;28;20311;-75
2021/11/06 06:28:36;;;;;;;5.80;4.72;;;7.60;99.90;;;;;;5013562;28;20169;-76
2021/11/06 06:31:03;;;;;;;11.38;4.70;;;7.60;99.90;;;;;;5014364;28;20223;-77
2021/11/06 06:33:30;;;;;;;4.20;3.40;;;7.50;99.90;;;;;;5014613;28;20259;-75
2021/11/06 06:35:55;;;;;;;4.97;4.00;;;7.50;99.90;;;;;;5014355;28;20172;-76
2021/11/06 06:38:21;;;;;;;8.93;4.68;;;7.60;99.90;;;;;;5029431;28;20177;-77
2021/11/06 06:40:46;;;;;;;4.75;4.35;;;7.50;99.90;;;;;;5014234;28;20192;-76
2021/11/06 06:43:12;;;;;;;3.85;3.42;;;7.50;99.90;;;;;;5014073;28;20175;-76
2021/11/06 06:45:38;;;;;;;5.35;3.90;;;7.40;99.90;;;;;;5014303;28;20172;-75
2021/11/06 06:48:03;;;;;;;4.72;3.78;;;7.40;99.90;;;;;;5014251;28;20195;-75
2021/11/06 06:50:29;;;;;;;4.05;3.70;;;7.50;99.90;;;;;;5013932;28;20318;-75
2021/11/06 06:52:55;;;;;;;5.05;4.50;;;7.60;99.90;;;;;;5013684;28;20216;-77
2021/11/06 06:55:20;;;;;;;7.28;3.90;;;7.80;99.90;;;;;;5014102;28;20169;-77
2021/11/06 06:57:46;;;;;;;9.40;4.15;;;7.80;99.90;;;;;;5013656;28;20169;-75
2021/11/06 07:00:13;;;;;;;5.32;3.78;;;7.70;99.90;;;;;;5028591;28;20586;-77
2021/11/06 07:02:39;;;;;;;5.65;4.47;;;7.70;99.90;;;;;;5013617;28;20172;-77
2021/11/06 07:05:05;;;;;;;7.63;4.20;;;7.70;99.90;;;;;;5013684;28;20180;-77
2021/11/06 07:07:31;;;;;;;7.13;4.22;;;7.80;99.90;;;;;;5013718;28;20181;-78
2021/11/06 07:09:57;;;;;;;4.70;4.30;;;7.90;99.90;;;;;;5012833;28;20196;-77
2021/11/06 07:12:26;;;;;;;4.15;3.75;;;8.10;99.90;;;;;;5013592;28;20707;-77
2021/11/06 07:14:52;;;;;;;5.80;4.38;;;8.20;99.90;;;;;;5013451;28;20164;-78
2021/11/06 07:17:18;;;;;;;7.03;3.70;;;8.30;99.90;;;;;;5013764;28;20215;-78
2021/11/06 07:19:44;;;;;;;3.95;3.63;;;8.30;99.90;;;;;;5013266;28;20188;-79
2021/11/06 07:22:09;;;;;;;4.13;3.72;;;8.20;99.90;;;;;;5028781;28;20161;-78
2021/11/06 07:24:36;;;;;;;4.28;3.72;;;8.10;99.90;;;;;;5013618;28;20628;-79
2021/11/06 07:27:06;;;;;;;6.97;3.45;;;7.90;99.90;;;;;;5013354;28;20207;-77
2021/11/06 07:29:33;;;;;;;5.18;4.22;;;7.90;99.90;;;;;;5013412;28;20200;-77
2021/11/06 07:31:59;;;;;;;6.32;4.32;;;7.90;99.90;;;;;;5028260;28;20298;-78
2021/11/06 07:34:24;;;;;;;7.38;3.45;;;7.70;99.90;;;;;;5012688;28;20610;-78
2021/11/06 07:36:50;;;;;;;5.53;3.85;;;7.90;99.90;;;;;;5012767;28;20177;-78
2021/11/06 07:39:17;;;;;;;8.13;4.85;;;8.00;99.90;;;;;;5027857;28;20188;-78
2021/11/06 07:41:43;;;;;;;9.73;5.13;;;8.10;99.90;;;;;;5012989;28;20180;-78
2021/11/06 07:44:11;;;;;;;6.80;4.22;;;8.10;99.90;;;;;;5012934;28;20164;-78
2021/11/06 07:46:37;;;;;;;7.70;4.50;;;8.00;99.90;;;;;;5013003;28;20161;-78
2021/11/06 07:49:02;;;;;;;4.45;4.03;;;8.00;99.90;;;;;;5012554;28;20172;-78
2021/11/06 07:51:28;;;;;;;4.40;3.97;;;8.20;99.90;;;;;;5012569;28;20196;-78
2021/11/06 07:53:54;;;;;;;6.35;4.95;;;8.30;99.90;;;;;;5013026;28;20176;-77
2021/11/06 07:56:20;;;;;;;6.05;4.88;;;8.30;99.90;;;;;;5012932;28;20164;-78
2021/11/06 07:58:46;;;;;;;7.63;4.30;;;8.30;99.90;;;;;;5012688;28;20308;-78
2021/11/06 08:01:12;;;;;;;8.57;5.00;;;8.50;99.90;;;;;;5012521;28;20192;-82
2021/11/06 08:03:38;;;;;;;9.23;3.85;;;8.50;99.90;;;;;;5012411;28;20683;-79
2021/11/06 08:06:05;;;;;;;6.70;4.55;;;8.40;99.90;;;;;;5027834;28;20172;-77
2021/11/06 08:08:30;;;;;;;6.43;5.18;;;8.40;99.90;;;;;;5012698;28;21365;-77
2021/11/06 08:10:56;;;;;;;6.43;4.47;;;8.50;99.90;;;;;;5029257;28;20238;-77
2021/11/06 08:13:23;;;;;;;11.43;4.68;;;8.30;99.90;;;;;;5029508;28;20250;-76
2021/11/06 08:15:48;;;;;;;6.78;4.32;;;8.50;99.90;;;;;;5031276;28;20206;-77
2021/11/06 08:18:14;;;;;;;8.18;4.40;;;8.50;99.90;;;;;;5030165;28;21384;-80
2021/11/06 08:20:40;;;;;;;5.50;3.80;;;8.50;99.90;;;;;;5030104;28;20184;-77
2021/11/06 08:23:06;;;;;;;4.43;3.95;;;8.60;99.90;;;;;;5029795;28;20230;-78
2021/11/06 08:25:31;;;;;;;7.35;5.63;;;8.50;99.90;;;;;;5031201;28;20168;-76
2021/11/06 08:27:58;;;;;;;7.80;4.18;;;8.50;99.90;;;;;;5030764;28;20165;-77
2021/11/06 08:30:25;;;;;;;4.07;3.78;;;8.70;99.90;;;;;;5027816;28;20207;-79
2021/11/06 08:32:52;;;;;;;4.78;4.20;;;8.90;99.90;;;;;;5025059;28;20218;-76
2021/11/06 08:35:18;;;;;;;5.00;4.05;;;9.00;99.90;;;;;;5025927;28;20184;-78
2021/11/06 08:37:45;;;;;;;19.85;4.88;;;9.00;99.90;;;;;;5029192;28;20535;-78
2021/11/06 08:40:12;;;;;;;8.85;4.85;;;9.10;99.90;;;;;;5030509;28;20183;-77
2021/11/06 08:42:38;;;;;;;7.25;5.32;;;9.10;99.90;;;;;;5027711;28;20187;-76
2021/11/06 08:45:06;;;;;;;7.57;4.32;;;9.20;99.90;;;;;;5029881;28;20541;-78
2021/11/06 08:47:32;;;;;;;5.57;4.93;;;9.20;99.90;;;;;;5030369;28;20259;-79
2021/11/06 08:49:58;;;;;;;5.50;4.75;;;9.40;99.90;;;;;;5030462;28;20310;-79
2021/11/06 08:52:24;;;;;;;10.55;4.43;;;9.50;99.90;;;;;;5029132;28;20218;-78
2021/11/06 08:54:50;;;;;;;9.15;5.28;;;9.90;99.90;;;;;;5030052;28;20168;-78
2021/11/06 08:57:19;;;;;;;6.78;4.40;;;10.00;99.90;;;;;;5030723;28;20206;-78
2021/11/06 08:59:48;;;;;;;5.55;4.68;;;10.00;99.90;;;;;;5030414;28;20184;-78
2021/11/06 09:02:15;;;;;;;11.32;4.75;;;10.10;99.90;;;;;;5030886;28;20172;-77
2021/11/06 09:04:41;;;;;;;7.85;4.63;;;10.30;99.90;;;;;;5029033;28;20246;-77
2021/11/06 09:07:06;;;;;;;13.15;4.50;;;10.40;99.90;;;;;;5030721;28;20202;-80
2021/11/06 09:09:32;;;;;;;4.20;3.83;;;10.60;99.90;;;;;;5031108;28;20341;-77
2021/11/06 09:11:59;;;;;;;5.00;4.35;;;10.50;99.90;;;;;;5030626;28;20211;-77
2021/11/06 09:14:25;;;;;;;6.97;4.57;;;10.50;99.90;;;;;;5029177;28;20175;-76
2021/11/06 09:16:50;;;;;;;8.90;5.80;;;10.30;99.90;;;;;;5029353;28;20179;-79
2021/11/06 09:19:16;;;;;;;5.68;4.60;;;10.30;99.90;;;;;;5029569;28;20283;-77
2021/11/06 09:21:44;;;;;;;5.38;4.57;;;10.10;99.90;;;;;;5029590;28;20642;-77
2021/11/06 09:24:09;;;;;;;12.20;4.40;;;9.80;99.90;;;;;;5030532;28;20172;-77
2021/11/06 09:26:39;;;;;;;7.40;5.15;;;9.90;99.90;;;;;;5028316;28;20172;-76
2021/11/06 09:29:07;;;;;;;4.90;4.43;;;9.80;99.90;;;;;;5028375;28;20160;-76
2021/11/06 09:31:33;;;;;;;11.57;4.70;;;10.10;99.90;;;;;;5030159;28;20585;-78
2021/11/06 09:34:00;;;;;;;19.13;5.18;;;10.30;99.90;;;;;;5032302;28;20214;-78
2021/11/06 09:36:26;;;;;;;6.65;4.55;;;10.40;99.90;;;;;;5034703;28;20172;-76
2021/11/06 09:38:53;;;;;;;10.57;6.10;;;10.40;99.90;;;;;;5035325;28;20178;-83
2021/11/06 09:41:18;;;;;;;10.10;5.05;;;10.30;99.90;;;;;;5035398;28;20229;-78
2021/11/06 09:43:45;;;;;;;6.20;4.68;;;10.30;99.90;;;;;;5035073;28;20179;-85
2021/11/06 09:46:11;;;;;;;4.95;4.55;;;10.40;99.90;;;;;;5035384;28;20167;-77
2021/11/06 09:48:39;;;;;;;6.93;5.05;;;10.30;99.90;;;;;;5032522;28;20568;-78
2021/11/06 09:51:05;;;;;;;7.15;4.70;;;10.10;99.90;;;;;;5033799;28;20676;-78
2021/11/06 09:53:40;;;;;;;12.45;5.38;;;10.20;99.90;;;;;;5035400;28;20171;-79
2021/11/06 09:56:08;;;;;;;8.70;5.50;;;10.40;99.90;;;;;;5034885;28;20172;-76
2021/11/06 09:58:34;;;;;;;7.47;5.72;;;10.70;99.90;;;;;;5035114;28;20180;-78
2021/11/06 10:01:00;;;;;;;10.18;5.78;;;10.90;99.90;;;;;;5034530;28;20191;-79
2021/11/06 10:03:26;;;;;;;16.67;5.65;;;10.90;99.90;;;;;;5033650;28;20171;-79
2021/11/06 10:06:00;;;;;;;8.48;5.72;;;11.00;99.90;;;;;;5035444;28;20156;-78
2021/11/06 10:08:30;;;;;;;8.43;4.90;;;11.10;99.90;;;;;;5026169;28;20543;-76
2021/11/06 10:11:00;;;;;;;6.97;4.55;;;11.20;99.90;;;;;;5048865;28;20214;-76
2021/11/06 10:13:26;;;;;;;4.60;4.20;;;11.30;99.90;;;;;;5025735;28;20184;-79
2021/11/06 10:15:56;;;;;;;7.72;5.07;;;11.30;99.90;;;;;;5011793;28;20172;-78
2021/11/06 10:18:24;;;;;;;10.50;5.30;;;11.30;99.90;;;;;;5021089;28;20687;-78
2021/11/06 10:21:02;;;;;;;5.80;4.57;;;11.40;99.90;;;;;;5032827;28;20188;-77
2021/11/06 10:23:30;;;;;;;5.45;4.93;;;11.40;99.90;;;;;;5031989;28;20686;-76
2021/11/06 10:26:28;;;;;;;6.55;5.05;;;11.30;99.90;;;;;;5033467;28;20171;-76
2021/11/06 10:29:07;;;;;;;6.18;5.18;;;11.20;99.90;;;;;;4988457;28;20192;-76
2021/11/06 10:31:39;;;;;;;5.63;5.07;;;11.30;99.90;;;;;;5032105;28;20228;-76
2021/11/06 10:34:12;;;;;;;5.07;4.45;;;11.30;99.90;;;;;;5029132;28;20322;-76
2021/11/06 10:36:38;;;;;;;5.43;4.85;;;11.20;99.90;;;;;;5032803;28;20687;-76
2021/11/06 10:39:11;;;;;;;9.80;5.80;;;11.00;99.90;;;;;;5031470;28;20305;-76
2021/11/06 10:41:41;;;;;;;8.75;5.78;;;10.80;99.90;;;;;;5032831;28;20611;-76
2021/11/06 10:44:08;;;;;;;5.53;4.50;;;10.90;99.90;;;;;;5029503;28;20234;-76
2021/11/06 10:46:35;;;;;;;6.28;5.00;;;11.10;99.90;;;;;;5031810;28;20184;-76
2021/11/06 10:49:02;;;;;;;9.30;5.32;;;11.10;99.90;;;;;;5032016;28;20172;-76
2021/11/06 10:51:29;;;;;;;8.15;4.85;;;11.10;99.90;;;;;;5032340;28;20204;-76
2021/11/06 10:54:04;;;;;;;7.13;5.00;;;11.20;99.90;;;;;;5029672;28;20259;-77
2021/11/06 10:56:38;;;;;;;5.13;4.32;;;11.20;99.90;;;;;;5032297;28;20507;-77
2021/11/06 10:59:11;;;;;;;6.78;5.07;;;11.00;99.90;;;;;;5032894;28;20664;-76
2021/11/06 11:01:42;;;;;;;5.68;4.57;;;11.10;99.90;;;;;;5031308;28;20194;-77
2021/11/06 11:04:17;;;;;;;5.53;4.65;;;11.00;99.90;;;;;;5032919;28;20172;-76
2021/11/06 11:06:46;;;;;;;8.07;4.68;;;11.00;99.90;;;;;;5033000;28;20170;-75
2021/11/06 11:09:18;;;;;;;17.38;5.43;;;11.00;99.90;;;;;;5033387;28;20184;-75
2021/11/06 11:11:44;;;;;;;8.00;5.00;;;10.90;99.90;;;;;;5031959;28;20234;-76
2021/11/06 11:14:16;;;;;;;8.45;5.82;;;10.80;99.90;;;;;;5032797;28;20638;-77
2021/11/06 11:17:02;;;;;;;7.55;4.65;;;10.70;99.90;;;;;;5032622;28;20246;-77
2021/11/06 11:19:44;;;;;;;5.65;4.80;;;10.90;99.90;;;;;;5032611;28;20279;-76
2021/11/06 11:22:29;;;;;;;6.88;5.30;;;10.90;99.90;;;;;;5033013;28;20302;-76
2021/11/06 11:24:56;;;;;;;6.57;4.88;;;10.90;99.90;;;;;;5033222;28;20624;-77
2021/11/06 11:27:22;;;;;;;6.90;5.65;;;10.90;99.90;;;;;;5032389;28;20294;-77
2021/11/06 11:29:48;;;;;;;7.75;5.32;;;11.20;99.90;;;;;;5032307;28;20195;-76
2021/11/06 11:32:16;;;;;;;12.30;5.57;;;11.30;99.90;;;;;;5032393;28;20208;-77
2021/11/06 11:34:43;;;;;;;16.65;5.75;;;11.40;99.90;;;;;;5032902;28;20257;-77
2021/11/06 11:37:09;;;;;;;4.15;3.83;;;11.40;99.90;;;;;;5032720;28;20754;-77
2021/11/06 11:39:35;;;;;;;8.18;4.68;;;11.40;99.90;;;;;;5033066;28;20227;-76
2021/11/06 11:42:19;;;;;;;8.18;5.32;;;11.30;99.90;;;;;;5031037;28;20530;-76
2021/11/06 11:45:05;;;;;;;7.25;4.60;;;11.20;99.90;;;;;;5032328;28;20212;-76
2021/11/06 11:47:32;;;;;;;8.80;5.18;;;11.10;99.90;;;;;;5030382;28;20183;-77
2021/11/06 11:50:00;;;;;;;7.10;4.47;;;11.00;99.90;;;;;;5031854;28;20651;-76
2021/11/06 11:52:37;;;;;;;6.93;5.32;;;11.20;99.90;;;;;;5032479;28;20254;-76
2021/11/06 11:55:08;;;;;;;8.48;4.95;;;11.20;99.90;;;;;;5031882;28;20246;-77
2021/11/06 11:57:37;;;;;;;6.95;4.32;;;11.00;99.90;;;;;;5030767;28;20168;-76
2021/11/06 12:00:23;;;;;;;8.50;4.32;;;10.90;99.90;;;;;;5032196;28;20187;-76
2021/11/06 12:02:59;;;;;;;4.60;4.20;;;10.90;99.90;;;;;;5032265;28;20265;-76
2021/11/06 12:05:46;;;;;;;11.70;5.43;;;11.00;99.90;;;;;;5030309;28;20194;-77
2021/11/06 12:08:13;;;;;;;12.95;4.75;;;11.20;99.90;;;;;;5031283;28;20172;-77
2021/11/06 12:10:45;;;;;;;7.65;5.10;;;11.20;99.90;;;;;;5032084;28;20184;-76
2021/11/06 12:13:26;;;;;;;6.63;5.18;;;11.30;99.90;;;;;;5030832;28;20550;-78
2021/11/06 12:16:05;;;;;;;5.13;4.32;;;11.30;99.90;;;;;;5032109;28;20156;-78
2021/11/06 12:18:36;;;;;;;4.78;3.92;;;11.40;99.90;;;;;;5031702;28;20514;-76
2021/11/06 12:21:17;;;;;;;4.57;4.15;;;11.30;99.90;;;;;;5031973;28;20593;-77
2021/11/06 12:23:43;;;;;;;10.48;4.70;;;11.40;99.90;;;;;;5032206;28;20181;-76
2021/11/06 12:26:19;;;;;;;7.75;5.22;;;11.30;99.90;;;;;;5031969;28;20163;-77
2021/11/06 12:28:46;;;;;;;6.63;3.90;;;11.30;99.90;;;;;;5032138;28;20175;-76
2021/11/06 12:31:29;;;;;;;5.45;4.95;;;11.30;99.90;;;;;;5031898;28;20599;-75
2021/11/06 12:33:56;;;;;;;5.32;4.82;;;11.30;99.90;;;;;;5032336;28;20651;-78
2021/11/06 12:36:23;;;;;;;5.78;4.97;;;11.10;99.90;;;;;;5031991;28;20160;-77
2021/11/06 12:38:50;;;;;;;5.63;5.07;;;10.70;99.90;;;;;;5031407;28;20167;-82
2021/11/06 12:41:38;;;;;;;14.80;5.70;;;10.50;99.90;;;;;;5031124;28;20175;-77
2021/11/06 12:44:07;;;;;;;4.95;4.55;;;10.40;99.90;;;;;;5031672;28;20247;-79
2021/11/06 12:46:35;;;;;;;5.78;5.05;;;10.50;99.90;;;;;;5030255;28;20199;-78
2021/11/06 12:49:08;;;;;;;6.72;5.85;;;10.60;99.90;;;;;;5030658;28;20164;-78
2021/11/06 12:51:37;;;;;;;8.68;5.65;;;10.60;99.90;;;;;;5031364;28;20722;-78